sensor_id;sensor_type;location;lat;lon;timestamp;P1;durP1;ratioP1;P2;durP2;ratioP2
74632;SDS011;63139;52.018;8.552;2022-12-05T00:01:48;31.23;;;13.70;;
74632;SDS011;63139;52.018;8.552;2022-12-05T00:04:16;33.88;;;15.25;;
74632;SDS011;63139;52.018;8.552;2022-12-05T00:06:44;35.88;;;16.33;;
74632;SDS011;63139;52.018;8.552;2022-12-05T00:09:12;29.73;;;14.27;;
74632;SDS011;63139;52.018;8.552;2022-12-05T00:11:41;30.38;;;15.27;;
74632;SDS011;63139;52.018;8.552;2022-12-05T00:14:11;28.63;;;13.77;;
74632;SDS011;63139;52.018;8.552;2022-12-05T00:16:40;37.10;;;15.80;;
74632;SDS011;63139;52.018;8.552;2022-12-05T00:19:12;32.33;;;14.77;;
74632;SDS011;63139;52.018;8.552;2022-12-05T00:21:41;29.08;;;14.60;;
74632;SDS011;63139;52.018;8.552;2022-12-05T00:24:10;29.80;;;13.88;;
74632;SDS011;63139;52.018;8.552;2022-12-05T00:26:40;33.63;;;14.70;;
74632;SDS011;63139;52.018;8.552;2022-12-05T00:29:09;35.95;;;16.27;;
74632;SDS011;63139;52.018;8.552;2022-12-05T00:31:37;33.47;;;15.25;;
74632;SDS011;63139;52.018;8.552;2022-12-05T00:34:05;33.50;;;14.73;;
74632;SDS011;63139;52.018;8.552;2022-12-05T00:36:34;32.67;;;16.05;;
74632;SDS011;63139;52.018;8.552;2022-12-05T00:39:04;31.75;;;14.80;;
74632;SDS011;63139;52.018;8.552;2022-12-05T00:41:33;24.65;;;11.70;;
74632;SDS011;63139;52.018;8.552;2022-12-05T00:44:02;30.50;;;14.23;;
74632;SDS011;63139;52.018;8.552;2022-12-05T00:46:31;31.85;;;14.93;;
74632;SDS011;63139;52.018;8.552;2022-12-05T00:49:00;30.38;;;14.45;;
74632;SDS011;63139;52.018;8.552;2022-12-05T00:51:30;34.03;;;15.40;;
74632;SDS011;63139;52.018;8.552;2022-12-05T00:54:01;25.83;;;12.45;;
74632;SDS011;63139;52.018;8.552;2022-12-05T00:56:31;30.25;;;14.20;;
74632;SDS011;63139;52.018;8.552;2022-12-05T00:59:00;28.38;;;13.27;;
74632;SDS011;63139;52.018;8.552;2022-12-05T01:01:29;32.17;;;14.63;;
74632;SDS011;63139;52.018;8.552;2022-12-05T01:04:00;30.52;;;14.10;;
74632;SDS011;63139;52.018;8.552;2022-12-05T01:06:29;29.38;;;13.57;;
74632;SDS011;63139;52.018;8.552;2022-12-05T01:08:58;29.45;;;14.18;;
74632;SDS011;63139;52.018;8.552;2022-12-05T01:11:27;31.15;;;14.25;;
74632;SDS011;63139;52.018;8.552;2022-12-05T01:13:55;33.55;;;14.95;;
74632;SDS011;63139;52.018;8.552;2022-12-05T01:16:25;27.75;;;12.90;;
74632;SDS011;63139;52.018;8.552;2022-12-05T01:18:55;30.95;;;13.13;;
74632;SDS011;63139;52.018;8.552;2022-12-05T01:21:24;30.48;;;14.35;;
74632;SDS011;63139;52.018;8.552;2022-12-05T01:23:52;24.58;;;12.43;;
74632;SDS011;63139;52.018;8.552;2022-12-05T01:26:20;30.10;;;12.65;;
74632;SDS011;63139;52.018;8.552;2022-12-05T01:28:50;27.08;;;12.32;;
74632;SDS011;63139;52.018;8.552;2022-12-05T01:31:20;28.92;;;13.25;;
74632;SDS011;63139;52.018;8.552;2022-12-05T01:33:50;27.98;;;12.95;;
74632;SDS011;63139;52.018;8.552;2022-12-05T01:36:18;27.20;;;12.82;;
74632;SDS011;63139;52.018;8.552;2022-12-05T01:38:46;31.08;;;14.77;;
74632;SDS011;63139;52.018;8.552;2022-12-05T01:41:15;28.27;;;13.50;;
74632;SDS011;63139;52.018;8.552;2022-12-05T01:43:58;28.65;;;13.93;;
74632;SDS011;63139;52.018;8.552;2022-12-05T01:46:28;26.42;;;13.13;;
74632;SDS011;63139;52.018;8.552;2022-12-05T01:48:59;25.63;;;12.60;;
74632;SDS011;63139;52.018;8.552;2022-12-05T01:51:31;24.52;;;11.77;;
74632;SDS011;63139;52.018;8.552;2022-12-05T01:54:02;28.77;;;13.88;;
74632;SDS011;63139;52.018;8.552;2022-12-05T01:56:31;26.70;;;13.18;;
74632;SDS011;63139;52.018;8.552;2022-12-05T01:59:02;27.30;;;13.32;;
74632;SDS011;63139;52.018;8.552;2022-12-05T02:01:31;29.98;;;13.10;;
74632;SDS011;63139;52.018;8.552;2022-12-05T02:04:00;27.30;;;13.65;;
74632;SDS011;63139;52.018;8.552;2022-12-05T02:06:28;29.67;;;13.45;;
74632;SDS011;63139;52.018;8.552;2022-12-05T02:08:57;29.75;;;14.35;;
74632;SDS011;63139;52.018;8.552;2022-12-05T02:11:26;23.58;;;12.40;;
74632;SDS011;63139;52.018;8.552;2022-12-05T02:14:05;23.77;;;12.52;;
74632;SDS011;63139;52.018;8.552;2022-12-05T02:19:30;24.20;;;10.95;;
74632;SDS011;63139;52.018;8.552;2022-12-05T02:22:19;28.92;;;13.75;;
74632;SDS011;63139;52.018;8.552;2022-12-05T02:25:04;26.05;;;12.80;;
74632;SDS011;63139;52.018;8.552;2022-12-05T02:28:01;26.83;;;12.98;;
74632;SDS011;63139;52.018;8.552;2022-12-05T02:30:42;28.42;;;13.50;;
74632;SDS011;63139;52.018;8.552;2022-12-05T02:33:17;25.80;;;13.05;;
74632;SDS011;63139;52.018;8.552;2022-12-05T02:35:50;28.65;;;13.38;;
74632;SDS011;63139;52.018;8.552;2022-12-05T02:38:26;25.30;;;12.93;;
74632;SDS011;63139;52.018;8.552;2022-12-05T02:41:00;25.45;;;14.02;;
74632;SDS011;63139;52.018;8.552;2022-12-05T02:43:36;26.77;;;13.35;;
74632;SDS011;63139;52.018;8.552;2022-12-05T02:46:10;32.70;;;14.02;;
74632;SDS011;63139;52.018;8.552;2022-12-05T02:48:41;25.38;;;12.90;;
74632;SDS011;63139;52.018;8.552;2022-12-05T02:51:12;26.40;;;12.27;;
74632;SDS011;63139;52.018;8.552;2022-12-05T02:53:43;29.08;;;14.45;;
74632;SDS011;63139;52.018;8.552;2022-12-05T02:56:13;25.38;;;12.93;;
74632;SDS011;63139;52.018;8.552;2022-12-05T02:58:44;22.88;;;12.00;;
74632;SDS011;63139;52.018;8.552;2022-12-05T03:01:18;27.95;;;13.48;;
74632;SDS011;63139;52.018;8.552;2022-12-05T03:03:50;30.58;;;14.20;;
74632;SDS011;63139;52.018;8.552;2022-12-05T03:06:18;28.80;;;13.52;;
74632;SDS011;63139;52.018;8.552;2022-12-05T03:08:53;20.52;;;10.30;;
74632;SDS011;63139;52.018;8.552;2022-12-05T03:11:24;26.80;;;12.85;;
74632;SDS011;63139;52.018;8.552;2022-12-05T03:13:56;30.70;;;13.88;;
74632;SDS011;63139;52.018;8.552;2022-12-05T03:16:28;25.02;;;12.77;;
74632;SDS011;63139;52.018;8.552;2022-12-05T03:19:02;29.45;;;12.55;;
74632;SDS011;63139;52.018;8.552;2022-12-05T03:21:36;27.42;;;13.10;;
74632;SDS011;63139;52.018;8.552;2022-12-05T03:24:09;28.17;;;13.50;;
74632;SDS011;63139;52.018;8.552;2022-12-05T03:26:43;25.60;;;12.73;;
74632;SDS011;63139;52.018;8.552;2022-12-05T03:29:21;27.45;;;13.00;;
74632;SDS011;63139;52.018;8.552;2022-12-05T03:31:59;30.67;;;13.60;;
74632;SDS011;63139;52.018;8.552;2022-12-05T03:34:44;27.90;;;12.93;;
74632;SDS011;63139;52.018;8.552;2022-12-05T03:37:19;29.73;;;13.85;;
74632;SDS011;63139;52.018;8.552;2022-12-05T03:39:53;26.13;;;12.57;;
74632;SDS011;63139;52.018;8.552;2022-12-05T03:42:30;24.50;;;13.05;;
74632;SDS011;63139;52.018;8.552;2022-12-05T03:45:02;29.95;;;13.95;;
74632;SDS011;63139;52.018;8.552;2022-12-05T03:47:37;27.38;;;12.73;;
74632;SDS011;63139;52.018;8.552;2022-12-05T03:52:43;28.05;;;13.10;;
74632;SDS011;63139;52.018;8.552;2022-12-05T03:55:35;25.02;;;11.32;;
74632;SDS011;63139;52.018;8.552;2022-12-05T03:58:06;24.73;;;11.48;;
74632;SDS011;63139;52.018;8.552;2022-12-05T04:00:38;21.58;;;11.63;;
74632;SDS011;63139;52.018;8.552;2022-12-05T04:03:10;30.40;;;14.05;;
74632;SDS011;63139;52.018;8.552;2022-12-05T04:05:43;25.55;;;13.45;;
74632;SDS011;63139;52.018;8.552;2022-12-05T04:08:15;25.98;;;12.48;;
74632;SDS011;63139;52.018;8.552;2022-12-05T04:10:47;23.50;;;11.88;;
74632;SDS011;63139;52.018;8.552;2022-12-05T04:13:18;23.67;;;12.15;;
74632;SDS011;63139;52.018;8.552;2022-12-05T04:15:52;19.27;;;10.07;;
74632;SDS011;63139;52.018;8.552;2022-12-05T04:18:45;23.98;;;12.10;;
74632;SDS011;63139;52.018;8.552;2022-12-05T04:21:17;26.52;;;13.15;;
74632;SDS011;63139;52.018;8.552;2022-12-05T04:24:05;23.13;;;10.77;;
74632;SDS011;63139;52.018;8.552;2022-12-05T04:26:56;27.15;;;11.75;;
74632;SDS011;63139;52.018;8.552;2022-12-05T04:29:33;24.60;;;12.43;;
74632;SDS011;63139;52.018;8.552;2022-12-05T04:32:09;24.10;;;11.57;;
74632;SDS011;63139;52.018;8.552;2022-12-05T04:34:41;27.27;;;13.50;;
74632;SDS011;63139;52.018;8.552;2022-12-05T04:37:15;28.02;;;13.43;;
74632;SDS011;63139;52.018;8.552;2022-12-05T04:39:50;25.50;;;12.20;;
74632;SDS011;63139;52.018;8.552;2022-12-05T04:42:24;24.83;;;12.90;;
74632;SDS011;63139;52.018;8.552;2022-12-05T04:44:56;26.15;;;13.27;;
74632;SDS011;63139;52.018;8.552;2022-12-05T04:47:29;23.88;;;12.75;;
74632;SDS011;63139;52.018;8.552;2022-12-05T04:50:00;29.40;;;13.52;;
74632;SDS011;63139;52.018;8.552;2022-12-05T04:52:29;24.98;;;12.43;;
74632;SDS011;63139;52.018;8.552;2022-12-05T04:54:58;25.52;;;13.00;;
74632;SDS011;63139;52.018;8.552;2022-12-05T04:57:32;24.95;;;11.82;;
74632;SDS011;63139;52.018;8.552;2022-12-05T05:00:04;25.83;;;12.98;;
74632;SDS011;63139;52.018;8.552;2022-12-05T05:02:34;27.23;;;12.95;;
74632;SDS011;63139;52.018;8.552;2022-12-05T05:05:08;25.13;;;12.75;;
74632;SDS011;63139;52.018;8.552;2022-12-05T05:07:43;25.35;;;11.98;;
74632;SDS011;63139;52.018;8.552;2022-12-05T05:10:15;26.17;;;13.88;;
74632;SDS011;63139;52.018;8.552;2022-12-05T05:12:46;28.13;;;13.07;;
74632;SDS011;63139;52.018;8.552;2022-12-05T05:15:14;22.88;;;12.60;;
74632;SDS011;63139;52.018;8.552;2022-12-05T05:17:42;27.38;;;13.20;;
74632;SDS011;63139;52.018;8.552;2022-12-05T05:20:11;27.15;;;14.27;;
74632;SDS011;63139;52.018;8.552;2022-12-05T05:22:52;28.65;;;12.90;;
74632;SDS011;63139;52.018;8.552;2022-12-05T05:25:21;21.27;;;11.73;;
74632;SDS011;63139;52.018;8.552;2022-12-05T05:27:50;26.23;;;13.60;;
74632;SDS011;63139;52.018;8.552;2022-12-05T05:30:20;26.30;;;12.25;;
74632;SDS011;63139;52.018;8.552;2022-12-05T05:32:48;27.50;;;13.32;;
74632;SDS011;63139;52.018;8.552;2022-12-05T05:35:18;29.58;;;13.98;;
74632;SDS011;63139;52.018;8.552;2022-12-05T05:37:46;22.30;;;11.95;;
74632;SDS011;63139;52.018;8.552;2022-12-05T05:40:14;29.08;;;14.00;;
74632;SDS011;63139;52.018;8.552;2022-12-05T05:42:42;27.20;;;13.95;;
74632;SDS011;63139;52.018;8.552;2022-12-05T05:45:11;27.20;;;13.65;;
74632;SDS011;63139;52.018;8.552;2022-12-05T05:47:40;28.02;;;14.20;;
74632;SDS011;63139;52.018;8.552;2022-12-05T05:50:09;25.00;;;12.23;;
74632;SDS011;63139;52.018;8.552;2022-12-05T05:52:47;29.27;;;14.27;;
74632;SDS011;63139;52.018;8.552;2022-12-05T05:55:15;30.33;;;14.48;;
74632;SDS011;63139;52.018;8.552;2022-12-05T05:57:43;24.20;;;12.70;;
74632;SDS011;63139;52.018;8.552;2022-12-05T06:00:11;25.45;;;13.27;;
74632;SDS011;63139;52.018;8.552;2022-12-05T06:02:40;27.67;;;13.40;;
74632;SDS011;63139;52.018;8.552;2022-12-05T06:05:08;28.70;;;13.63;;
74632;SDS011;63139;52.018;8.552;2022-12-05T06:07:36;23.48;;;12.15;;
74632;SDS011;63139;52.018;8.552;2022-12-05T06:10:06;25.88;;;12.70;;
74632;SDS011;63139;52.018;8.552;2022-12-05T06:12:34;27.67;;;14.05;;
74632;SDS011;63139;52.018;8.552;2022-12-05T06:15:02;24.13;;;13.02;;
74632;SDS011;63139;52.018;8.552;2022-12-05T06:17:31;24.30;;;12.27;;
74632;SDS011;63139;52.018;8.552;2022-12-05T06:19:58;21.30;;;11.38;;
74632;SDS011;63139;52.018;8.552;2022-12-05T06:22:26;25.58;;;13.48;;
74632;SDS011;63139;52.018;8.552;2022-12-05T06:24:55;25.10;;;11.40;;
74632;SDS011;63139;52.018;8.552;2022-12-05T06:27:25;24.40;;;12.18;;
74632;SDS011;63139;52.018;8.552;2022-12-05T06:29:53;23.60;;;12.30;;
74632;SDS011;63139;52.018;8.552;2022-12-05T06:32:21;25.42;;;12.70;;
74632;SDS011;63139;52.018;8.552;2022-12-05T06:34:49;26.55;;;13.40;;
74632;SDS011;63139;52.018;8.552;2022-12-05T06:37:16;24.23;;;12.40;;
74632;SDS011;63139;52.018;8.552;2022-12-05T06:39:44;26.58;;;13.43;;
74632;SDS011;63139;52.018;8.552;2022-12-05T06:42:12;26.35;;;13.75;;
74632;SDS011;63139;52.018;8.552;2022-12-05T06:44:41;24.08;;;12.55;;
74632;SDS011;63139;52.018;8.552;2022-12-05T06:47:09;28.25;;;14.45;;
74632;SDS011;63139;52.018;8.552;2022-12-05T06:49:36;28.83;;;13.90;;
74632;SDS011;63139;52.018;8.552;2022-12-05T06:52:04;23.95;;;12.82;;
74632;SDS011;63139;52.018;8.552;2022-12-05T06:54:32;23.95;;;12.65;;
74632;SDS011;63139;52.018;8.552;2022-12-05T06:57:00;24.48;;;12.65;;
74632;SDS011;63139;52.018;8.552;2022-12-05T06:59:27;26.35;;;12.65;;
74632;SDS011;63139;52.018;8.552;2022-12-05T07:01:57;23.95;;;12.02;;
74632;SDS011;63139;52.018;8.552;2022-12-05T07:04:23;23.10;;;12.43;;
74632;SDS011;63139;52.018;8.552;2022-12-05T07:06:52;24.08;;;12.90;;
74632;SDS011;63139;52.018;8.552;2022-12-05T07:09:21;24.25;;;11.18;;
74632;SDS011;63139;52.018;8.552;2022-12-05T07:12:11;21.08;;;10.60;;
74632;SDS011;63139;52.018;8.552;2022-12-05T07:14:41;21.17;;;11.15;;
74632;SDS011;63139;52.018;8.552;2022-12-05T07:17:16;22.60;;;12.27;;
74632;SDS011;63139;52.018;8.552;2022-12-05T07:19:45;23.60;;;11.02;;
74632;SDS011;63139;52.018;8.552;2022-12-05T07:22:14;23.63;;;12.15;;
74632;SDS011;63139;52.018;8.552;2022-12-05T07:24:42;21.00;;;10.85;;
74632;SDS011;63139;52.018;8.552;2022-12-05T07:27:11;18.65;;;9.85;;
74632;SDS011;63139;52.018;8.552;2022-12-05T07:29:39;18.67;;;9.40;;
74632;SDS011;63139;52.018;8.552;2022-12-05T07:32:07;21.95;;;10.75;;
74632;SDS011;63139;52.018;8.552;2022-12-05T07:34:36;22.77;;;10.93;;
74632;SDS011;63139;52.018;8.552;2022-12-05T07:37:05;18.48;;;10.43;;
74632;SDS011;63139;52.018;8.552;2022-12-05T07:39:33;18.00;;;10.30;;
74632;SDS011;63139;52.018;8.552;2022-12-05T07:42:01;19.73;;;10.13;;
74632;SDS011;63139;52.018;8.552;2022-12-05T07:44:29;19.45;;;10.15;;
74632;SDS011;63139;52.018;8.552;2022-12-05T07:46:56;15.27;;;8.60;;
74632;SDS011;63139;52.018;8.552;2022-12-05T07:49:24;21.20;;;11.32;;
74632;SDS011;63139;52.018;8.552;2022-12-05T07:51:54;17.05;;;9.77;;
74632;SDS011;63139;52.018;8.552;2022-12-05T07:54:21;17.23;;;9.55;;
74632;SDS011;63139;52.018;8.552;2022-12-05T07:56:49;18.45;;;9.93;;
74632;SDS011;63139;52.018;8.552;2022-12-05T07:59:17;15.35;;;8.80;;
74632;SDS011;63139;52.018;8.552;2022-12-05T08:01:45;17.52;;;8.90;;
74632;SDS011;63139;52.018;8.552;2022-12-05T08:04:13;17.70;;;9.40;;
74632;SDS011;63139;52.018;8.552;2022-12-05T08:06:41;15.35;;;8.60;;
74632;SDS011;63139;52.018;8.552;2022-12-05T08:09:10;16.48;;;9.82;;
74632;SDS011;63139;52.018;8.552;2022-12-05T08:11:38;18.38;;;9.90;;
74632;SDS011;63139;52.018;8.552;2022-12-05T08:14:06;15.95;;;8.52;;
74632;SDS011;63139;52.018;8.552;2022-12-05T08:16:34;18.85;;;9.13;;
74632;SDS011;63139;52.018;8.552;2022-12-05T08:19:02;17.00;;;9.00;;
74632;SDS011;63139;52.018;8.552;2022-12-05T08:21:32;14.38;;;8.40;;
74632;SDS011;63139;52.018;8.552;2022-12-05T08:24:00;15.57;;;8.35;;
74632;SDS011;63139;52.018;8.552;2022-12-05T08:26:31;16.80;;;8.63;;
74632;SDS011;63139;52.018;8.552;2022-12-05T08:29:01;19.10;;;9.13;;
74632;SDS011;63139;52.018;8.552;2022-12-05T08:31:31;18.27;;;9.30;;
74632;SDS011;63139;52.018;8.552;2022-12-05T08:34:01;17.35;;;10.23;;
74632;SDS011;63139;52.018;8.552;2022-12-05T08:36:29;15.73;;;7.68;;
74632;SDS011;63139;52.018;8.552;2022-12-05T08:38:58;12.40;;;7.20;;
74632;SDS011;63139;52.018;8.552;2022-12-05T08:41:27;16.48;;;9.05;;
74632;SDS011;63139;52.018;8.552;2022-12-05T08:43:57;15.43;;;8.07;;
74632;SDS011;63139;52.018;8.552;2022-12-05T08:46:26;15.02;;;9.10;;
74632;SDS011;63139;52.018;8.552;2022-12-05T08:48:54;15.82;;;8.90;;
74632;SDS011;63139;52.018;8.552;2022-12-05T08:51:22;20.08;;;10.75;;
74632;SDS011;63139;52.018;8.552;2022-12-05T08:53:50;20.08;;;11.82;;
74632;SDS011;63139;52.018;8.552;2022-12-05T08:56:18;19.92;;;11.13;;
74632;SDS011;63139;52.018;8.552;2022-12-05T08:58:52;15.40;;;8.13;;
74632;SDS011;63139;52.018;8.552;2022-12-05T09:01:29;35.08;;;16.60;;
74632;SDS011;63139;52.018;8.552;2022-12-05T09:03:58;20.58;;;12.48;;
74632;SDS011;63139;52.018;8.552;2022-12-05T09:06:27;26.30;;;10.82;;
74632;SDS011;63139;52.018;8.552;2022-12-05T09:08:56;24.02;;;12.43;;
74632;SDS011;63139;52.018;8.552;2022-12-05T09:11:27;20.77;;;10.75;;
74632;SDS011;63139;52.018;8.552;2022-12-05T09:13:57;21.23;;;10.10;;
74632;SDS011;63139;52.018;8.552;2022-12-05T09:16:27;33.72;;;11.02;;
74632;SDS011;63139;52.018;8.552;2022-12-05T09:19:08;25.95;;;9.85;;
74632;SDS011;63139;52.018;8.552;2022-12-05T09:21:38;20.02;;;8.60;;
74632;SDS011;63139;52.018;8.552;2022-12-05T09:24:08;16.73;;;9.45;;
74632;SDS011;63139;52.018;8.552;2022-12-05T09:26:37;14.20;;;8.45;;
74632;SDS011;63139;52.018;8.552;2022-12-05T09:29:05;16.23;;;9.70;;
74632;SDS011;63139;52.018;8.552;2022-12-05T09:31:41;14.88;;;8.85;;
74632;SDS011;63139;52.018;8.552;2022-12-05T09:34:11;26.15;;;8.95;;
74632;SDS011;63139;52.018;8.552;2022-12-05T09:36:40;39.20;;;10.52;;
74632;SDS011;63139;52.018;8.552;2022-12-05T09:39:09;26.63;;;9.70;;
74632;SDS011;63139;52.018;8.552;2022-12-05T09:41:46;25.65;;;9.63;;
74632;SDS011;63139;52.018;8.552;2022-12-05T09:44:40;27.08;;;9.75;;
74632;SDS011;63139;52.018;8.552;2022-12-05T09:47:12;19.77;;;9.63;;
74632;SDS011;63139;52.018;8.552;2022-12-05T09:49:50;22.45;;;9.32;;
74632;SDS011;63139;52.018;8.552;2022-12-05T09:52:23;19.63;;;9.45;;
74632;SDS011;63139;52.018;8.552;2022-12-05T09:54:54;17.33;;;9.23;;
74632;SDS011;63139;52.018;8.552;2022-12-05T09:57:26;15.55;;;9.15;;
74632;SDS011;63139;52.018;8.552;2022-12-05T10:00:00;17.92;;;9.55;;
74632;SDS011;63139;52.018;8.552;2022-12-05T10:02:33;14.13;;;8.27;;
74632;SDS011;63139;52.018;8.552;2022-12-05T10:05:12;14.13;;;8.38;;
74632;SDS011;63139;52.018;8.552;2022-12-05T10:07:49;15.57;;;8.40;;
74632;SDS011;63139;52.018;8.552;2022-12-05T10:10:27;15.90;;;9.67;;
74632;SDS011;63139;52.018;8.552;2022-12-05T10:13:07;14.75;;;9.00;;
74632;SDS011;63139;52.018;8.552;2022-12-05T10:15:44;13.35;;;8.48;;
74632;SDS011;63139;52.018;8.552;2022-12-05T10:18:26;12.52;;;7.82;;
74632;SDS011;63139;52.018;8.552;2022-12-05T10:21:01;12.23;;;7.90;;
74632;SDS011;63139;52.018;8.552;2022-12-05T10:23:34;10.93;;;7.45;;
74632;SDS011;63139;52.018;8.552;2022-12-05T10:26:24;12.27;;;7.45;;
74632;SDS011;63139;52.018;8.552;2022-12-05T10:28:55;13.00;;;7.50;;
74632;SDS011;63139;52.018;8.552;2022-12-05T10:31:29;9.30;;;6.40;;
74632;SDS011;63139;52.018;8.552;2022-12-05T10:34:02;10.35;;;7.00;;
74632;SDS011;63139;52.018;8.552;2022-12-05T10:36:33;12.35;;;7.40;;
74632;SDS011;63139;52.018;8.552;2022-12-05T10:39:01;11.85;;;7.80;;
74632;SDS011;63139;52.018;8.552;2022-12-05T10:41:36;12.90;;;8.15;;
74632;SDS011;63139;52.018;8.552;2022-12-05T10:44:04;13.85;;;8.20;;
74632;SDS011;63139;52.018;8.552;2022-12-05T10:46:32;12.85;;;8.10;;
74632;SDS011;63139;52.018;8.552;2022-12-05T10:49:00;12.68;;;7.38;;
74632;SDS011;63139;52.018;8.552;2022-12-05T10:51:28;17.05;;;8.52;;
74632;SDS011;63139;52.018;8.552;2022-12-05T10:54:07;10.68;;;7.85;;
74632;SDS011;63139;52.018;8.552;2022-12-05T10:56:41;10.82;;;7.53;;
74632;SDS011;63139;52.018;8.552;2022-12-05T10:59:11;10.40;;;7.20;;
74632;SDS011;63139;52.018;8.552;2022-12-05T11:01:45;12.23;;;7.50;;
74632;SDS011;63139;52.018;8.552;2022-12-05T11:04:20;12.27;;;7.20;;
74632;SDS011;63139;52.018;8.552;2022-12-05T11:06:52;13.55;;;8.43;;
74632;SDS011;63139;52.018;8.552;2022-12-05T11:09:25;12.18;;;7.55;;
74632;SDS011;63139;52.018;8.552;2022-12-05T11:12:14;11.90;;;7.72;;
74632;SDS011;63139;52.018;8.552;2022-12-05T11:14:52;11.35;;;7.57;;
74632;SDS011;63139;52.018;8.552;2022-12-05T11:17:23;13.05;;;8.30;;
74632;SDS011;63139;52.018;8.552;2022-12-05T11:19:52;13.38;;;8.23;;
74632;SDS011;63139;52.018;8.552;2022-12-05T11:22:20;12.02;;;7.68;;
74632;SDS011;63139;52.018;8.552;2022-12-05T11:24:59;11.20;;;7.57;;
74632;SDS011;63139;52.018;8.552;2022-12-05T11:27:28;12.60;;;7.80;;
74632;SDS011;63139;52.018;8.552;2022-12-05T11:29:59;12.45;;;8.00;;
74632;SDS011;63139;52.018;8.552;2022-12-05T11:32:29;11.88;;;8.25;;
74632;SDS011;63139;52.018;8.552;2022-12-05T11:35:04;13.50;;;8.18;;
74632;SDS011;63139;52.018;8.552;2022-12-05T11:37:36;13.23;;;7.80;;
74632;SDS011;63139;52.018;8.552;2022-12-05T11:40:15;12.63;;;7.20;;
74632;SDS011;63139;52.018;8.552;2022-12-05T11:43:03;11.10;;;7.53;;
74632;SDS011;63139;52.018;8.552;2022-12-05T11:45:50;12.93;;;7.47;;
74632;SDS011;63139;52.018;8.552;2022-12-05T11:48:28;14.98;;;7.97;;
74632;SDS011;63139;52.018;8.552;2022-12-05T11:54:18;12.70;;;8.32;;
74632;SDS011;63139;52.018;8.552;2022-12-05T11:57:23;11.23;;;7.55;;
74632;SDS011;63139;52.018;8.552;2022-12-05T12:00:05;11.73;;;7.10;;
74632;SDS011;63139;52.018;8.552;2022-12-05T12:02:57;12.13;;;7.40;;
74632;SDS011;63139;52.018;8.552;2022-12-05T12:05:43;9.02;;;6.28;;
74632;SDS011;63139;52.018;8.552;2022-12-05T12:08:23;9.88;;;6.35;;
74632;SDS011;63139;52.018;8.552;2022-12-05T12:10:56;12.70;;;7.97;;
74632;SDS011;63139;52.018;8.552;2022-12-05T12:13:41;9.88;;;6.95;;
74632;SDS011;63139;52.018;8.552;2022-12-05T12:16:21;11.82;;;8.07;;
74632;SDS011;63139;52.018;8.552;2022-12-05T12:19:09;12.15;;;8.05;;
74632;SDS011;63139;52.018;8.552;2022-12-05T12:21:49;9.95;;;7.32;;
74632;SDS011;63139;52.018;8.552;2022-12-05T12:24:26;10.68;;;7.32;;
74632;SDS011;63139;52.018;8.552;2022-12-05T12:27:10;12.40;;;8.43;;
74632;SDS011;63139;52.018;8.552;2022-12-05T12:29:47;9.43;;;6.95;;
74632;SDS011;63139;52.018;8.552;2022-12-05T12:32:25;9.18;;;6.90;;
74632;SDS011;63139;52.018;8.552;2022-12-05T12:35:19;11.75;;;8.02;;
74632;SDS011;63139;52.018;8.552;2022-12-05T12:38:05;11.02;;;7.60;;
74632;SDS011;63139;52.018;8.552;2022-12-05T12:40:52;10.32;;;6.80;;
74632;SDS011;63139;52.018;8.552;2022-12-05T12:43:26;8.95;;;6.63;;
74632;SDS011;63139;52.018;8.552;2022-12-05T12:46:26;9.38;;;6.15;;
74632;SDS011;63139;52.018;8.552;2022-12-05T12:49:08;9.73;;;6.72;;
74632;SDS011;63139;52.018;8.552;2022-12-05T12:51:48;10.65;;;8.05;;
74632;SDS011;63139;52.018;8.552;2022-12-05T12:54:22;10.02;;;7.70;;
74632;SDS011;63139;52.018;8.552;2022-12-05T12:57:22;13.57;;;8.02;;
74632;SDS011;63139;52.018;8.552;2022-12-05T12:59:59;11.95;;;7.80;;
74632;SDS011;63139;52.018;8.552;2022-12-05T13:02:32;9.88;;;7.05;;
74632;SDS011;63139;52.018;8.552;2022-12-05T13:05:05;10.07;;;6.72;;
74632;SDS011;63139;52.018;8.552;2022-12-05T13:07:43;9.70;;;6.95;;
74632;SDS011;63139;52.018;8.552;2022-12-05T13:10:17;10.50;;;7.13;;
74632;SDS011;63139;52.018;8.552;2022-12-05T13:12:51;12.13;;;7.47;;
74632;SDS011;63139;52.018;8.552;2022-12-05T13:15:22;10.65;;;7.40;;
74632;SDS011;63139;52.018;8.552;2022-12-05T13:17:56;11.27;;;7.88;;
74632;SDS011;63139;52.018;8.552;2022-12-05T13:20:26;10.82;;;7.22;;
74632;SDS011;63139;52.018;8.552;2022-12-05T13:22:56;9.85;;;6.63;;
74632;SDS011;63139;52.018;8.552;2022-12-05T13:25:33;10.38;;;6.68;;
74632;SDS011;63139;52.018;8.552;2022-12-05T13:28:05;9.48;;;6.30;;
74632;SDS011;63139;52.018;8.552;2022-12-05T13:30:50;10.60;;;7.40;;
74632;SDS011;63139;52.018;8.552;2022-12-05T13:33:30;11.80;;;8.02;;
74632;SDS011;63139;52.018;8.552;2022-12-05T13:36:05;11.02;;;7.43;;
74632;SDS011;63139;52.018;8.552;2022-12-05T13:38:57;10.32;;;7.53;;
74632;SDS011;63139;52.018;8.552;2022-12-05T13:41:44;9.95;;;6.70;;
74632;SDS011;63139;52.018;8.552;2022-12-05T13:44:33;11.68;;;7.82;;
74632;SDS011;63139;52.018;8.552;2022-12-05T13:47:04;11.18;;;7.63;;
74632;SDS011;63139;52.018;8.552;2022-12-05T13:49:45;12.63;;;7.60;;
74632;SDS011;63139;52.018;8.552;2022-12-05T13:52:18;9.93;;;7.43;;
74632;SDS011;63139;52.018;8.552;2022-12-05T13:54:52;10.35;;;7.50;;
74632;SDS011;63139;52.018;8.552;2022-12-05T14:03:14;9.50;;;6.88;;
74632;SDS011;63139;52.018;8.552;2022-12-05T14:05:45;12.77;;;7.22;;
74632;SDS011;63139;52.018;8.552;2022-12-05T14:11:21;10.90;;;7.50;;
74632;SDS011;63139;52.018;8.552;2022-12-05T14:13:50;11.27;;;7.65;;
74632;SDS011;63139;52.018;8.552;2022-12-05T14:22:28;12.82;;;8.95;;
74632;SDS011;63139;52.018;8.552;2022-12-05T14:25:09;11.82;;;7.85;;
74632;SDS011;63139;52.018;8.552;2022-12-05T14:27:48;13.63;;;8.57;;
74632;SDS011;63139;52.018;8.552;2022-12-05T14:30:23;11.75;;;7.95;;
74632;SDS011;63139;52.018;8.552;2022-12-05T14:32:58;13.48;;;9.13;;
74632;SDS011;63139;52.018;8.552;2022-12-05T14:35:28;14.93;;;9.40;;
74632;SDS011;63139;52.018;8.552;2022-12-05T14:38:00;21.67;;;14.73;;
74632;SDS011;63139;52.018;8.552;2022-12-05T14:40:31;12.32;;;8.88;;
74632;SDS011;63139;52.018;8.552;2022-12-05T14:43:02;12.60;;;8.80;;
74632;SDS011;63139;52.018;8.552;2022-12-05T14:45:33;13.43;;;8.15;;
74632;SDS011;63139;52.018;8.552;2022-12-05T14:48:05;14.90;;;10.10;;
74632;SDS011;63139;52.018;8.552;2022-12-05T14:50:53;14.60;;;9.90;;
74632;SDS011;63139;52.018;8.552;2022-12-05T14:53:28;16.40;;;11.13;;
74632;SDS011;63139;52.018;8.552;2022-12-05T14:56:03;15.40;;;9.50;;
74632;SDS011;63139;52.018;8.552;2022-12-05T14:58:43;14.50;;;8.27;;
74632;SDS011;63139;52.018;8.552;2022-12-05T15:01:16;11.00;;;7.90;;
74632;SDS011;63139;52.018;8.552;2022-12-05T15:03:59;14.25;;;9.63;;
74632;SDS011;63139;52.018;8.552;2022-12-05T15:06:32;14.20;;;8.82;;
74632;SDS011;63139;52.018;8.552;2022-12-05T15:09:04;13.35;;;9.15;;
74632;SDS011;63139;52.018;8.552;2022-12-05T15:11:55;12.90;;;8.48;;
74632;SDS011;63139;52.018;8.552;2022-12-05T15:14:24;15.13;;;8.77;;
74632;SDS011;63139;52.018;8.552;2022-12-05T15:16:56;11.48;;;7.57;;
74632;SDS011;63139;52.018;8.552;2022-12-05T15:19:28;14.48;;;9.18;;
74632;SDS011;63139;52.018;8.552;2022-12-05T15:22:00;14.40;;;9.38;;
74632;SDS011;63139;52.018;8.552;2022-12-05T15:24:37;16.30;;;10.70;;
74632;SDS011;63139;52.018;8.552;2022-12-05T15:27:05;14.30;;;8.75;;